createdAt,value
2022-10-29T00:01:00.533Z,2.22
2022-10-29T00:03:27.404Z,2.45
2022-10-29T00:06:09.970Z,1.50
2022-10-29T00:08:38.771Z,2.20
2022-10-29T00:11:10.874Z,2.67
2022-10-29T00:13:38.024Z,2.67
2022-10-29T00:16:07.193Z,2.72
2022-10-29T00:18:33.969Z,1.88
2022-10-29T00:21:05.609Z,2.25
2022-10-29T00:26:18.688Z,2.50
2022-10-29T00:28:45.822Z,3.35
2022-10-29T00:31:15.551Z,2.17
2022-10-29T00:33:42.791Z,1.55
2022-10-29T00:36:30.142Z,1.98
2022-10-29T00:38:57.286Z,1.70
2022-10-29T00:41:28.067Z,2.17
2022-10-29T00:44:22.658Z,2.55
2022-10-29T00:47:03.513Z,2.25
2022-10-29T00:49:32.761Z,2.40
2022-10-29T00:52:02.230Z,1.90
2022-10-29T00:54:31.720Z,2.13
2022-10-29T00:57:19.420Z,3.05
2022-10-29T01:02:38.568Z,2.75
2022-10-29T01:05:25.912Z,2.08
2022-10-29T01:07:52.744Z,1.88
2022-10-29T01:10:31.988Z,2.10
2022-10-29T01:13:28.989Z,3.03
2022-10-29T01:16:02.397Z,2.30
2022-10-29T01:18:42.088Z,2.97
2022-10-29T01:21:39.989Z,1.77
2022-10-29T01:24:25.259Z,2.63
2022-10-29T01:27:10.661Z,2.17
2022-10-29T01:30:05.255Z,2.35
2022-10-29T01:32:53.993Z,2.20
2022-10-29T01:35:34.397Z,2.60
2022-10-29T01:38:31.304Z,2.55
2022-10-29T01:41:15.754Z,3.30
2022-10-29T01:44:12.533Z,3.08
2022-10-29T01:47:06.248Z,3.22
2022-10-29T01:49:37.888Z,3.70
2022-10-29T01:52:24.665Z,2.95
2022-10-29T01:55:10.364Z,3.55
2022-10-29T01:57:40.208Z,4.30
2022-10-29T02:00:14.908Z,3.33
2022-10-29T02:03:11.475Z,3.00
2022-10-29T02:06:20.213Z,3.35
2022-10-29T02:09:10.818Z,3.53
2022-10-29T02:11:58.856Z,3.63
2022-10-29T02:14:34.525Z,3.90
2022-10-29T02:17:02.387Z,3.90
2022-10-29T02:19:31.040Z,3.80
2022-10-29T02:21:57.919Z,2.97
2022-10-29T02:24:25.628Z,3.53
2022-10-29T02:27:11.176Z,3.33
2022-10-29T02:29:38.778Z,2.78
2022-10-29T02:32:24.204Z,4.15
2022-10-29T02:34:51.044Z,3.40
2022-10-29T02:37:17.963Z,4.18
2022-10-29T02:39:44.782Z,3.03
2022-10-29T02:42:11.475Z,3.50
2022-10-29T02:44:38.292Z,4.60
2022-10-29T02:47:05.119Z,4.07
2022-10-29T02:49:31.824Z,3.42
2022-10-29T02:52:36.185Z,4.78
2022-10-29T02:55:03.211Z,3.70
2022-10-29T02:57:29.910Z,4.65
2022-10-29T02:59:56.693Z,3.83
2022-10-29T03:02:23.599Z,4.43
2022-10-29T03:04:50.483Z,3.78
2022-10-29T03:07:17.177Z,4.03
2022-10-29T03:09:43.990Z,3.70
2022-10-29T03:12:10.693Z,3.35
2022-10-29T03:14:37.407Z,4.43
2022-10-29T03:17:04.153Z,3.85
2022-10-29T03:19:30.869Z,3.75
2022-10-29T03:22:16.528Z,3.63
2022-10-29T03:24:43.360Z,3.88
2022-10-29T03:27:10.089Z,4.05
2022-10-29T03:29:36.836Z,4.43
2022-10-29T03:32:03.550Z,3.75
2022-10-29T03:34:30.383Z,3.05
2022-10-29T03:36:57.145Z,2.40
2022-10-29T03:39:24.086Z,3.05
2022-10-29T03:41:50.848Z,3.28
2022-10-29T03:44:17.563Z,3.88
2022-10-29T03:46:44.328Z,3.47
2022-10-29T03:49:11.025Z,3.30
2022-10-29T03:51:38.036Z,3.88
2022-10-29T03:54:04.939Z,3.88
2022-10-29T03:56:31.757Z,2.78
2022-10-29T03:58:58.671Z,3.00
2022-10-29T04:01:25.686Z,3.58
2022-10-29T04:03:52.553Z,3.70
2022-10-29T04:06:19.613Z,2.72
2022-10-29T04:08:46.425Z,3.60
2022-10-29T04:11:14.185Z,3.95
2022-10-29T04:13:41.306Z,3.63
2022-10-29T04:16:08.129Z,3.17
2022-10-29T04:18:34.940Z,2.90
2022-10-29T04:29:59.703Z,3.50
2022-10-29T04:32:27.498Z,3.35
2022-10-29T04:34:54.160Z,3.88
2022-10-29T04:37:20.960Z,3.45
2022-10-29T04:39:47.644Z,3.90
2022-10-29T04:42:14.531Z,3.33
2022-10-29T04:44:41.260Z,3.38
2022-10-29T04:47:07.987Z,4.68
2022-10-29T04:49:34.752Z,4.00
2022-10-29T04:52:01.672Z,3.30
2022-10-29T04:54:28.506Z,3.53
2022-10-29T04:56:55.460Z,3.92
2022-10-29T04:59:22.609Z,5.05
2022-10-29T05:01:49.568Z,3.22
2022-10-29T05:04:16.285Z,4.53
2022-10-29T05:06:43.048Z,4.25
2022-10-29T05:09:09.795Z,3.45
2022-10-29T05:11:36.596Z,3.30
2022-10-29T05:14:03.435Z,4.25
2022-10-29T05:16:30.234Z,3.38
2022-10-29T05:18:56.951Z,3.63
2022-10-29T05:21:23.706Z,3.58
2022-10-29T05:23:50.394Z,3.70
2022-10-29T05:26:17.239Z,2.85
2022-10-29T05:28:44.137Z,3.80
2022-10-29T05:31:10.889Z,3.42
2022-10-29T05:33:37.738Z,4.43
2022-10-29T05:36:04.819Z,3.25
2022-10-29T05:38:32.201Z,3.63
2022-10-29T05:40:59.802Z,2.92
2022-10-29T05:43:27.214Z,2.85
2022-10-29T05:45:54.082Z,4.10
2022-10-29T05:48:20.880Z,4.15
2022-10-29T05:50:47.632Z,4.03
2022-10-29T05:53:15.159Z,4.43
2022-10-29T05:55:42.696Z,3.88
2022-10-29T05:58:13.124Z,4.15
2022-10-29T06:00:43.343Z,3.50
2022-10-29T06:03:18.129Z,3.38
2022-10-29T06:06:04.068Z,2.95
2022-10-29T06:08:30.903Z,2.83
2022-10-29T06:11:01.369Z,2.35
2022-10-29T06:13:28.195Z,2.63
2022-10-29T06:15:58.476Z,3.25
2022-10-29T06:18:45.203Z,3.28
2022-10-29T06:21:12.112Z,2.92
2022-10-29T06:23:38.986Z,3.47
2022-10-29T06:26:06.002Z,3.53
2022-10-29T06:28:34.816Z,4.05
2022-10-29T06:31:01.824Z,3.55
2022-10-29T06:33:28.554Z,3.38
2022-10-29T06:35:59.366Z,4.25
2022-10-29T06:38:26.203Z,2.95
2022-10-29T06:41:11.388Z,3.20
2022-10-29T06:43:38.136Z,3.22
2022-10-29T06:46:05.125Z,3.20
2022-10-29T06:48:50.465Z,3.40
2022-10-29T06:51:17.360Z,3.42
2022-10-29T06:53:44.457Z,3.58
2022-10-29T06:56:11.439Z,3.15
2022-10-29T06:58:38.166Z,3.53
2022-10-29T07:01:05.230Z,4.00
2022-10-29T07:03:32.162Z,3.33
2022-10-29T07:05:59.818Z,4.00
2022-10-29T07:08:26.989Z,2.67
2022-10-29T07:10:54.076Z,3.88
2022-10-29T07:13:20.912Z,3.42
2022-10-29T07:15:47.628Z,3.63
2022-10-29T07:18:14.485Z,3.15
2022-10-29T07:20:43.410Z,3.55
2022-10-29T07:23:11.539Z,2.88
2022-10-29T07:25:39.678Z,3.20
2022-10-29T07:28:18.104Z,4.22
2022-10-29T07:30:45.405Z,3.03
2022-10-29T07:33:12.423Z,3.13
2022-10-29T07:38:24.030Z,3.17
2022-10-29T07:41:09.757Z,2.92
2022-10-29T07:43:36.526Z,2.75
2022-10-29T07:46:03.275Z,2.90
2022-10-29T07:48:30.044Z,2.70
2022-10-29T07:53:45.715Z,3.80
2022-10-29T07:56:12.450Z,3.88
2022-10-29T07:58:39.205Z,4.25
2022-10-29T08:01:06.262Z,3.58
2022-10-29T08:03:51.840Z,3.33
2022-10-29T08:06:18.711Z,2.58
2022-10-29T08:08:45.564Z,3.58
2022-10-29T08:11:12.405Z,4.15
2022-10-29T08:13:39.234Z,3.33
2022-10-29T08:16:06.139Z,3.33
2022-10-29T08:18:32.915Z,3.75
2022-10-29T08:21:03.694Z,3.50
2022-10-29T08:23:30.428Z,3.35
2022-10-29T08:26:00.452Z,2.97
2022-10-29T08:28:29.299Z,4.35
2022-10-29T08:30:57.469Z,4.60
2022-10-29T08:33:24.171Z,3.70
2022-10-29T08:35:51.032Z,4.00
2022-10-29T08:38:17.774Z,3.13
2022-10-29T08:40:50.626Z,3.10
2022-10-29T08:43:26.240Z,3.42
2022-10-29T08:45:55.087Z,3.13
2022-10-29T08:48:33.955Z,3.15
2022-10-29T08:51:17.906Z,2.38
2022-10-29T08:53:54.144Z,2.42
2022-10-29T08:56:35.931Z,2.90
2022-10-29T08:59:20.244Z,3.65
2022-10-29T09:01:47.720Z,3.78
2022-10-29T09:04:30.288Z,2.13
2022-10-29T09:07:21.261Z,3.08
2022-10-29T09:10:04.780Z,3.42
2022-10-29T09:13:17.632Z,3.60
2022-10-29T09:15:58.019Z,3.50
2022-10-29T09:19:00.105Z,3.25
2022-10-29T09:22:18.470Z,4.38
2022-10-29T09:24:47.957Z,3.53
2022-10-29T09:27:22.485Z,3.22
2022-10-29T09:33:10.466Z,3.42
2022-10-29T09:35:44.674Z,3.90
2022-10-29T09:38:23.048Z,3.90
2022-10-29T09:41:10.509Z,3.80
2022-10-29T09:43:37.211Z,3.95
2022-10-29T09:46:45.156Z,3.92
2022-10-29T09:49:41.561Z,3.90
2022-10-29T09:52:21.735Z,3.72
2022-10-29T09:54:51.377Z,3.90
2022-10-29T09:57:23.628Z,4.25
2022-10-29T09:59:56.261Z,3.78
2022-10-29T10:02:55.486Z,5.13
2022-10-29T10:05:31.402Z,4.70
2022-10-29T10:08:16.813Z,3.60
2022-10-29T10:13:57.613Z,3.75
2022-10-29T10:16:27.186Z,3.83
2022-10-29T10:18:54.004Z,3.63
2022-10-29T10:24:38.363Z,4.47
2022-10-29T10:27:26.316Z,3.50
2022-10-29T10:30:16.013Z,3.53
2022-10-29T10:32:42.838Z,4.20
2022-10-29T10:35:47.700Z,3.88
2022-10-29T10:38:15.657Z,4.32
2022-10-29T10:40:43.199Z,3.08
2022-10-29T10:43:28.848Z,3.78
2022-10-29T10:46:00.324Z,4.30
2022-10-29T10:48:32.629Z,3.60
2022-10-29T10:51:25.103Z,3.95
2022-10-29T10:53:52.293Z,4.13
2022-10-29T10:56:51.740Z,3.50
2022-10-29T10:59:19.718Z,3.55
2022-10-29T11:01:50.011Z,2.95
2022-10-29T11:04:34.137Z,2.90
2022-10-29T11:07:06.234Z,4.28
2022-10-29T11:09:42.860Z,3.60
2022-10-29T11:12:21.544Z,3.85
2022-10-29T11:14:55.768Z,3.30
2022-10-29T11:17:32.772Z,2.90
2022-10-29T11:20:08.302Z,3.90
2022-10-29T11:22:59.680Z,3.10
2022-10-29T11:25:35.584Z,3.33
2022-10-29T11:28:23.955Z,3.03
2022-10-29T11:30:59.779Z,2.65
2022-10-29T11:33:44.957Z,3.20
2022-10-29T11:36:14.916Z,2.92
2022-10-29T11:38:49.140Z,2.95
2022-10-29T11:41:18.852Z,4.05
2022-10-29T11:43:47.787Z,3.92
2022-10-29T11:46:14.492Z,4.00
2022-10-29T11:48:55.139Z,3.33
2022-10-29T11:51:45.445Z,3.15
2022-10-29T11:54:41.153Z,4.95
2022-10-29T11:57:29.316Z,7.80
2022-10-29T12:00:19.630Z,6.60
2022-10-29T12:03:04.673Z,6.25
2022-10-29T12:06:09.196Z,4.10
2022-10-29T12:08:35.868Z,4.15
2022-10-29T12:11:10.023Z,2.83
2022-10-29T12:14:11.033Z,4.35
2022-10-29T12:16:43.704Z,4.25
2022-10-29T12:19:30.723Z,3.70
2022-10-29T12:22:06.311Z,4.22
2022-10-29T12:27:38.729Z,3.03
2022-10-29T12:30:25.293Z,3.08
2022-10-29T12:33:20.338Z,4.20
2022-10-29T12:36:07.349Z,4.13
2022-10-29T12:38:48.856Z,3.88
2022-10-29T12:41:52.995Z,4.18
2022-10-29T12:45:00.182Z,3.00
2022-10-29T12:47:33.027Z,2.58
2022-10-29T12:50:17.716Z,2.55
2022-10-29T12:52:57.500Z,3.72
2022-10-29T12:55:24.896Z,4.22
2022-10-29T12:57:51.862Z,4.78
2022-10-29T13:00:24.624Z,2.80
2022-10-29T13:02:55.320Z,2.85
2022-10-29T13:05:59.774Z,4.40
2022-10-29T13:08:33.278Z,3.75
2022-10-29T13:11:23.470Z,4.03
2022-10-29T13:13:55.349Z,4.28
2022-10-29T13:16:27.859Z,3.40
2022-10-29T13:19:04.409Z,4.40
2022-10-29T13:22:23.594Z,3.08
2022-10-29T13:28:37.190Z,3.25
2022-10-29T13:31:04.167Z,3.60
2022-10-29T13:33:30.833Z,3.90
2022-10-29T13:36:01.649Z,3.22
2022-10-29T13:38:52.377Z,3.05
2022-10-29T13:41:43.148Z,3.10
2022-10-29T13:44:25.099Z,2.85
2022-10-29T13:47:12.722Z,3.13
2022-10-29T13:49:44.917Z,3.72
2022-10-29T13:52:17.935Z,3.08
2022-10-29T13:54:50.922Z,3.42
2022-10-29T13:57:32.536Z,2.58
2022-10-29T14:00:04.968Z,3.75
2022-10-29T14:02:48.261Z,2.60
2022-10-29T14:05:26.040Z,2.40
2022-10-29T14:08:12.027Z,2.65
2022-10-29T14:10:41.657Z,3.92
2022-10-29T14:13:32.442Z,3.55
2022-10-29T14:16:09.285Z,2.50
2022-10-29T14:18:55.239Z,2.47
2022-10-29T14:21:24.332Z,1.90
2022-10-29T14:23:59.667Z,3.05
2022-10-29T14:26:46.107Z,2.78
2022-10-29T14:29:14.149Z,3.67
2022-10-29T14:31:41.059Z,2.97
2022-10-29T14:34:23.764Z,3.10
2022-10-29T14:36:53.336Z,2.50
2022-10-29T14:39:48.404Z,2.85
2022-10-29T14:42:34.609Z,2.80
2022-10-29T14:45:24.416Z,3.53
2022-10-29T14:47:55.187Z,3.55
2022-10-29T14:50:27.290Z,1.52
2022-10-29T14:53:04.016Z,3.08
2022-10-29T14:55:36.536Z,4.95
2022-10-29T14:58:12.301Z,3.45
2022-10-29T15:00:52.228Z,3.22
2022-10-29T15:03:23.604Z,4.03
2022-10-29T15:05:50.798Z,1.80
2022-10-29T15:08:29.536Z,3.55
2022-10-29T15:11:16.415Z,2.28
2022-10-29T15:13:46.103Z,2.20
2022-10-29T15:16:35.721Z,3.35
2022-10-29T15:19:05.159Z,3.28
2022-10-29T15:21:33.338Z,3.95
2022-10-29T15:24:09.033Z,2.75
2022-10-29T15:26:43.849Z,4.80
2022-10-29T15:29:12.391Z,3.53
2022-10-29T15:31:48.836Z,1.83
2022-10-29T15:34:22.187Z,2.47
2022-10-29T15:36:56.238Z,3.60
2022-10-29T15:39:46.600Z,4.15
2022-10-29T15:42:21.471Z,3.30
2022-10-29T15:45:06.277Z,3.65
2022-10-29T15:47:37.710Z,4.28
2022-10-29T15:50:07.248Z,4.22
2022-10-29T15:52:39.531Z,2.80
2022-10-29T15:55:23.434Z,4.15
2022-10-29T15:57:54.745Z,3.45
2022-10-29T16:00:23.579Z,3.38
2022-10-29T16:02:51.267Z,2.40
2022-10-29T16:05:18.546Z,3.67
2022-10-29T16:10:31.966Z,2.75
2022-10-29T16:12:59.825Z,3.38
2022-10-29T16:17:59.031Z,4.57
2022-10-29T16:20:25.953Z,3.58
2022-10-29T16:22:53.154Z,4.32
2022-10-29T16:25:28.365Z,3.65
2022-10-29T16:27:55.831Z,4.60
2022-10-29T16:30:23.869Z,4.47
2022-10-29T16:32:52.448Z,4.35
2022-10-29T16:35:20.714Z,4.30
2022-10-29T16:37:47.939Z,3.28
2022-10-29T16:40:15.274Z,4.22
2022-10-29T16:42:42.541Z,4.07
2022-10-29T16:45:14.931Z,4.32
2022-10-29T16:47:41.811Z,4.93
2022-10-29T16:50:13.922Z,4.20
2022-10-29T16:52:40.756Z,4.00
2022-10-29T16:55:07.740Z,3.00
2022-10-29T16:57:34.483Z,3.05
2022-10-29T17:00:01.163Z,3.95
2022-10-29T17:02:28.018Z,4.63
2022-10-29T17:04:54.743Z,3.40
2022-10-29T17:07:40.663Z,3.90
2022-10-29T17:10:08.432Z,4.22
2022-10-29T17:12:35.504Z,3.58
2022-10-29T17:15:02.340Z,4.20
2022-10-29T17:17:32.140Z,3.97
2022-10-29T17:19:59.208Z,2.72
2022-10-29T17:22:25.931Z,4.18
2022-10-29T17:24:52.743Z,3.50
2022-10-29T17:27:19.514Z,3.10
2022-10-29T17:29:46.365Z,4.40
2022-10-29T17:32:31.671Z,2.92
2022-10-29T17:34:59.480Z,3.30
2022-10-29T17:37:26.924Z,3.50
2022-10-29T17:39:53.843Z,3.03
2022-10-29T17:42:20.669Z,4.45
2022-10-29T17:44:47.486Z,2.85
2022-10-29T17:47:14.195Z,3.38
2022-10-29T17:49:41.008Z,3.58
2022-10-29T17:52:07.784Z,3.35
2022-10-29T17:54:35.411Z,3.70
2022-10-29T17:57:02.342Z,3.75
2022-10-29T17:59:29.094Z,2.70
2022-10-29T18:01:56.424Z,3.60
2022-10-29T18:04:23.427Z,5.53
2022-10-29T18:06:50.193Z,4.05
2022-10-29T18:09:20.223Z,2.67
2022-10-29T18:12:07.447Z,2.42
2022-10-29T18:14:34.176Z,1.90
2022-10-29T18:17:01.492Z,1.90
2022-10-29T18:19:28.544Z,2.72
2022-10-29T18:21:55.236Z,2.40
2022-10-29T18:24:24.222Z,3.42
2022-10-29T18:27:10.017Z,4.10
2022-10-29T18:29:36.853Z,2.80
2022-10-29T18:32:04.079Z,3.45
2022-10-29T18:34:31.797Z,2.85
2022-10-29T18:36:58.516Z,3.10
2022-10-29T18:39:25.380Z,3.70
2022-10-29T18:41:52.235Z,3.13
2022-10-29T18:44:19.051Z,3.63
2022-10-29T18:46:46.037Z,2.90
2022-10-29T18:49:13.191Z,3.50
2022-10-29T18:51:40.261Z,2.92
2022-10-29T18:54:07.361Z,3.00
2022-10-29T18:56:34.169Z,2.45
2022-10-29T18:59:00.993Z,4.68
2022-10-29T19:01:33.876Z,2.35
2022-10-29T19:04:02.991Z,3.15
2022-10-29T19:06:32.410Z,2.72
2022-10-29T19:09:01.058Z,2.80
2022-10-29T19:11:28.610Z,2.17
2022-10-29T19:13:58.036Z,3.22
2022-10-29T19:16:26.265Z,1.45
2022-10-29T19:18:58.129Z,3.47
2022-10-29T19:21:26.199Z,2.10
2022-10-29T19:23:57.332Z,2.83
2022-10-29T19:26:25.750Z,3.28
2022-10-29T19:28:52.632Z,2.47
2022-10-29T19:31:22.577Z,2.95
2022-10-29T19:33:51.076Z,1.92
2022-10-29T19:36:18.721Z,2.53
2022-10-29T19:38:46.208Z,3.58
2022-10-29T19:41:13.958Z,2.90
2022-10-29T19:43:41.063Z,3.20
2022-10-29T19:46:12.812Z,2.40
2022-10-29T19:48:40.301Z,3.88
2022-10-29T19:51:08.366Z,2.38
2022-10-29T19:53:38.185Z,2.72
2022-10-29T19:56:06.382Z,3.08
2022-10-29T19:58:33.398Z,2.75
2022-10-29T20:01:05.718Z,2.63
2022-10-29T20:03:32.639Z,2.28
2022-10-29T20:05:59.449Z,2.58
2022-10-29T20:08:26.327Z,2.67
2022-10-29T20:11:00.204Z,2.22
2022-10-29T20:13:27.764Z,2.63
2022-10-29T20:15:55.073Z,3.13
2022-10-29T20:18:22.113Z,3.25
2022-10-29T20:20:57.775Z,3.28
2022-10-29T20:23:25.794Z,3.65
2022-10-29T20:25:52.897Z,3.85
2022-10-29T20:28:57.450Z,3.20
2022-10-29T20:31:29.996Z,3.55
2022-10-29T20:33:59.456Z,2.92
2022-10-29T20:36:30.056Z,3.30
2022-10-29T20:39:15.708Z,3.50
2022-10-29T20:41:43.455Z,3.30
2022-10-29T20:44:10.438Z,4.63
2022-10-29T20:46:40.897Z,4.38
2022-10-29T20:49:10.404Z,4.85
2022-10-29T20:51:37.131Z,4.80
2022-10-29T20:54:04.061Z,4.03
2022-10-29T20:56:30.792Z,4.07
2022-10-29T20:58:57.652Z,3.28
2022-10-29T21:01:25.248Z,4.22
2022-10-29T21:03:52.202Z,4.10
2022-10-29T21:06:19.861Z,5.07
2022-10-29T21:08:47.970Z,3.97
2022-10-29T21:11:16.469Z,3.42
2022-10-29T21:13:43.570Z,5.40
2022-10-29T21:16:23.467Z,4.75
2022-10-29T21:18:52.939Z,3.55
2022-10-29T21:21:20.405Z,2.25
2022-10-29T21:23:47.380Z,3.08
2022-10-29T21:26:20.378Z,3.25
2022-10-29T21:28:48.848Z,3.22
2022-10-29T21:31:34.420Z,2.30
2022-10-29T21:34:01.253Z,2.90
2022-10-29T21:36:27.978Z,3.92
2022-10-29T21:38:54.856Z,4.50
2022-10-29T21:41:21.613Z,6.55
2022-10-29T21:43:48.344Z,5.30
2022-10-29T21:46:15.132Z,5.43
2022-10-29T21:49:00.684Z,8.05
2022-10-29T21:51:27.465Z,7.50
2022-10-29T21:54:12.758Z,6.95
2022-10-29T21:56:39.527Z,8.00
2022-10-29T21:59:06.321Z,8.23
2022-10-29T22:01:33.297Z,7.88
2022-10-29T22:04:00.477Z,9.57
2022-10-29T22:06:27.422Z,9.77
2022-10-29T22:08:56.445Z,8.68
2022-10-29T22:11:24.703Z,9.63
2022-10-29T22:13:52.108Z,8.63
2022-10-29T22:16:19.052Z,9.93
2022-10-29T22:18:46.450Z,9.55
2022-10-29T22:21:40.987Z,8.98
2022-10-29T22:24:09.389Z,9.48
2022-10-29T22:26:36.129Z,9.13
2022-10-29T22:29:02.996Z,9.60
2022-10-29T22:31:48.380Z,9.77
2022-10-29T22:34:15.146Z,8.02
2022-10-29T22:36:41.975Z,11.05
2022-10-29T22:39:08.917Z,9.95
2022-10-29T22:41:35.677Z,10.32
2022-10-29T22:44:03.031Z,10.05
2022-10-29T22:46:48.787Z,10.07
2022-10-29T22:49:34.268Z,8.80
2022-10-29T22:52:01.747Z,9.35
2022-10-29T22:54:28.910Z,6.78
2022-10-29T22:56:55.703Z,9.02
2022-10-29T23:02:06.720Z,9.52
2022-10-29T23:04:33.505Z,9.73
2022-10-29T23:07:02.028Z,9.90
2022-10-29T23:09:29.000Z,10.55
2022-10-29T23:11:55.777Z,9.60
2022-10-29T23:14:22.540Z,9.00
2022-10-29T23:16:49.272Z,10.02
2022-10-29T23:19:15.998Z,9.43
2022-10-29T23:21:42.764Z,10.07
2022-10-29T23:24:09.748Z,9.68
2022-10-29T23:26:36.525Z,8.38
2022-10-29T23:29:03.466Z,10.10
2022-10-29T23:31:30.772Z,10.52
2022-10-29T23:33:58.782Z,10.88
2022-10-29T23:36:27.165Z,9.90
2022-10-29T23:38:55.748Z,10.07
2022-10-29T23:41:22.864Z,11.00
2022-10-29T23:43:49.792Z,9.85
2022-10-29T23:46:16.580Z,11.35
2022-10-29T23:48:43.259Z,9.77
2022-10-29T23:51:10.186Z,10.27
2022-10-29T23:53:37.037Z,10.98
2022-10-29T23:56:05.663Z,7.57
2022-10-29T23:58:32.392Z,7.32
